Aberdeen, United Kingdom

8:57 AM BST on October 02, 2014 (GMT +0100)
Brigde of Don | Change Station
CLOSE
Current Station
Personal Weather Station
Location: Aberdeen, SCOTLAND
Elevation: 233 ft
Nearby Weather Stations

Elev 233 ft 57.20 °N, 2.13 °W | Updated 3 seconds ago

Clear
Clear
48.6 °F
Feels Like 49 °F
N
2.0
Wind Variable Wind from SSW
Gusts 4.0 mph

Today
High -- | Low -- °F
--% Chance of Precip.
Yesterday
High -- | Low -- °F
Precip. -- in
7:14 AM 6:41 PM
First Quarter, 56% visible
Pressure 30.30 in
Visibility -9999.0 miles
Clouds
Windchill 49 °F
Dew Point 43 °F
Humidity 80%
Rainfall 0.00 in
Snow Depth Not available.
UV Not available.
Pollen Not available.
Air Quality Not available.
Flu Activity Not available.
METAR EGPD 020750Z 17004KT CAVOK 10/05 Q1026 NOSIG

More Conditions Fewer Conditions

Pressure 30.30 in
Visibility -9999.0 miles
Clouds
Windchill 49 °F
Dew Point 43 °F
Humidity 80%
Rainfall 0.00 in
Snow Depth Not available.
UV Not available.
Pollen Not available.
Air Quality Not available.
Flu Activity Not available.
METAR EGPD 020750Z 17004KT CAVOK 10/05 Q1026 NOSIG

More Conditions Fewer Conditions

10-Day Weather Forecast

Almanac

Astronomy

Oct. 02, 2014 Rise Set
Actual Time 7:14 AM BST 6:41 PM BST
Civil Twilight 6:36 AM BST 7:19 PM BST
Nautical Twilight 5:51 AM BST 8:03 PM BST
Astronomical Twilight 5:04 AM BST 8:50 PM BST
Moon 3:39 PM BST No Moon Set
Length of Visible Light 12h 43m
Length of Day
11h 26m
Tomorrow will be 4m 50s shorter.
First Quarter, 56% of the Moon is Illuminated
Today
First Quarter
Oct 8
Full
Oct 15
Last Quarter
Oct 23
New
Oct 30
First Quarter

Yesterday's Extremes

Country Highs Country Lows

Community

WunderPhotos

Upload Photos

1,758,198 photos uploaded!

WunderBlogs® & News

By Dr. Jeff Masters
Director of Meteorology, Weather Underground
By Kari Strenfel
Meteorologist, Weather Underground
By Christopher C. Burt
Weather Historian, Weather Underground
October 2, 2014
October 2, 2014
October 2, 2014

Nearby

Snow Depth

Not available.

Earthquake Activity

City Distance Mag. Time & Date
No recent earthquake activity has been reported nearby.
Minimum magnitude displayed is 2.5.

Coastal Water Temperatures

Place Temperature
No Stations Reporting

Nearby Weather Stations